Corinthiakos — A8UL2 — position and weather

sailwx.info

Track history (hours):
 
Tides and Currents Weather Stations Pressure Air Temp Water Temp Dewpoint Dewpoint Depression Visibility Wind Speed Wind Dir Waves Ship Positions

Corinthiakos

Last reported at 2015-Feb-24 12:30 UTC. Time now 2015-Mar-03 12:43 UTC.
Position N 01°51' E 102°28'.

Length 262 m; draft 12.5 m.

Type: Cargo ship. MMSI: 636014516.

Date/timePositionNaut miles runAvg speedWind from/ knotsBaromVisibWave heightAir tempDewpointWater temp
2015-Feb-24 12:30N 01°51' E 102°28'1314.0
2015-Feb-24 11:34N 01°46' E 102°40'6612.9
2015-Feb-24 06:29N 01°12' E 103°36'1010.8
2015-Feb-24 05:33N 01°17' E 103°45'1 0.9
2015-Feb-24 04:34N 01°17' E 103°46'0 0.0
2015-Feb-24 03:34N 01°17' E 103°46'0 0.0
2015-Feb-24 02:33N 01°17' E 103°46'0 0.0
2015-Feb-24 01:33N 01°17' E 103°46'0 0.0
2015-Feb-24 00:33N 01°17' E 103°46'0 0.0
2015-Feb-23 23:34N 01°17' E 103°46'0 0.0
2015-Feb-23 22:34N 01°17' E 103°46'0 0.0
2015-Feb-23 21:34N 01°17' E 103°46'0 0.0
2015-Feb-23 20:33N 01°17' E 103°46'0 0.0
2015-Feb-23 19:33N 01°17' E 103°46'0 0.0
2015-Feb-23 18:33N 01°17' E 103°46'0 0.0
2015-Feb-23 17:33N 01°17' E 103°46'0 0.0
2015-Feb-23 16:33N 01°17' E 103°46'0 0.0
2015-Feb-23 15:34N 01°17' E 103°46'0 0.0
2015-Feb-23 14:34N 01°17' E 103°46'0 0.0
2015-Feb-23 13:33N 01°17' E 103°46'0 0.1
2015-Feb-23 12:33N 01°17' E 103°46'1 1.3
2015-Feb-23 11:30N 01°17' E 103°45'8 6.8
2015-Feb-23 10:20N 01°13' E 103°51'5 6.7
2015-Feb-23 09:33N 01°14' E 103°56'1615.7
2015-Feb-23 08:31N 01°17' E 104°12'  
2015-Feb-18 20:14N 21°55' E 113°53'912.6
2015-Feb-18 19:32N 22°04' E 113°51'1313.1
2015-Feb-18 18:33N 22°17' E 113°48'1715.2
2015-Feb-18 17:25N 22°34' E 113°43'0 0.0
2015-Feb-18 03:33N 22°34' E 113°43'1514.9
2015-Feb-18 02:33N 22°20' E 113°48'1414.3
2015-Feb-18 01:33N 22°06' E 113°51'2 2.3
2015-Feb-18 00:32N 22°04' E 113°51'7 4.8
2015-Feb-17 23:07N 21°57' E 113°53'24411.6
2015-Feb-17 02:07N 23°30' E 117°57'913.1
2015-Feb-17 01:25N 23°36' E 118°05'6112.6
2015-Feb-16 20:32N 24°18' E 118°55'35812.7
2015-Feb-15 16:23N 29°19' E 122°30'1513.1
2015-Feb-15 15:13N 29°34' E 122°32'711.2
2015-Feb-15 14:33N 29°41' E 122°30'1313.1
2015-Feb-15 13:33N 29°47' E 122°16'1212.2
2015-Feb-15 12:34N 29°55' E 122°06'1212.2
2015-Feb-15 11:33N 29°58' E 121°52'2 2.0
2015-Feb-15 10:24N 29°59' E 121°50'0 0.0
2015-Feb-15 09:30N 29°59' E 121°50'0 0.0
2015-Feb-15 08:30N 29°59' E 121°50'0 0.0
2015-Feb-15 07:30N 29°59' E 121°50'0 0.0
2015-Feb-15 06:30N 29°59' E 121°50'0 0.0
2015-Feb-15 05:30N 29°59' E 121°50'0 0.0
2015-Feb-15 04:18N 29°59' E 121°50'0 0.0
2015-Feb-15 03:30N 29°59' E 121°50'0 0.0
2015-Feb-15 02:30N 29°59' E 121°50'0 0.0
2015-Feb-15 01:24N 29°59' E 121°50'0 0.0
2015-Feb-15 00:18N 29°59' E 121°50'0 0.0
2015-Feb-14 23:30N 29°59' E 121°50'0 0.0
2015-Feb-14 22:30N 29°59' E 121°50'0 0.0
2015-Feb-14 21:30N 29°59' E 121°50'2 2.1
2015-Feb-14 20:33N 29°58' E 121°51'1313.5
2015-Feb-14 19:34N 29°56' E 122°07'1312.9
2015-Feb-14 18:32N 29°46' E 122°17'6 6.6
2015-Feb-14 17:33N 29°44' E 122°24'1111.2
2015-Feb-14 16:33N 29°44' E 122°37'1212.0
2015-Feb-14 15:33N 29°53' E 122°47'1312.5
2015-Feb-14 14:32N 30°03' E 122°56'1411.5
2015-Feb-14 13:17N 30°17' E 122°59'912.3
2015-Feb-14 12:33N 30°23' E 122°51'  
Track history (hours):
 
Tides and Currents Weather Stations Pressure Air Temp Water Temp Dewpoint Dewpoint Depression Visibility Wind Speed Wind Dir Waves Ship Positions

Corinthiakos

Last reported at 2015-Feb-24 12:30 UTC. Time now 2015-Mar-03 12:43 UTC.
Position N 01°51' E 102°28'.

Length 262 m; draft 12.5 m.

Type: Cargo ship. MMSI: 636014516.

Date/timePositionNaut miles runAvg speedWind from/ knotsBaromVisibWave heightAir tempDewpointWater temp
2015-Feb-24 12:30N 01°51' E 102°28'1314.0
2015-Feb-24 11:34N 01°46' E 102°40'6612.9
2015-Feb-24 06:29N 01°12' E 103°36'1010.8
2015-Feb-24 05:33N 01°17' E 103°45'1 0.9
2015-Feb-24 04:34N 01°17' E 103°46'0 0.0
2015-Feb-24 03:34N 01°17' E 103°46'0 0.0
2015-Feb-24 02:33N 01°17' E 103°46'0 0.0
2015-Feb-24 01:33N 01°17' E 103°46'0 0.0
2015-Feb-24 00:33N 01°17' E 103°46'0 0.0
2015-Feb-23 23:34N 01°17' E 103°46'0 0.0
2015-Feb-23 22:34N 01°17' E 103°46'0 0.0
2015-Feb-23 21:34N 01°17' E 103°46'0 0.0
2015-Feb-23 20:33N 01°17' E 103°46'0 0.0
2015-Feb-23 19:33N 01°17' E 103°46'0 0.0
2015-Feb-23 18:33N 01°17' E 103°46'0 0.0
2015-Feb-23 17:33N 01°17' E 103°46'0 0.0
2015-Feb-23 16:33N 01°17' E 103°46'0 0.0
2015-Feb-23 15:34N 01°17' E 103°46'0 0.0
2015-Feb-23 14:34N 01°17' E 103°46'0 0.0
2015-Feb-23 13:33N 01°17' E 103°46'0 0.1
2015-Feb-23 12:33N 01°17' E 103°46'1 1.3
2015-Feb-23 11:30N 01°17' E 103°45'8 6.8
2015-Feb-23 10:20N 01°13' E 103°51'5 6.7
2015-Feb-23 09:33N 01°14' E 103°56'1615.7
2015-Feb-23 08:31N 01°17' E 104°12'  
2015-Feb-18 20:14N 21°55' E 113°53'912.6
2015-Feb-18 19:32N 22°04' E 113°51'1313.1
2015-Feb-18 18:33N 22°17' E 113°48'1715.2
2015-Feb-18 17:25N 22°34' E 113°43'0 0.0
2015-Feb-18 03:33N 22°34' E 113°43'1514.9
2015-Feb-18 02:33N 22°20' E 113°48'1414.3
2015-Feb-18 01:33N 22°06' E 113°51'2 2.3
2015-Feb-18 00:32N 22°04' E 113°51'7 4.8
2015-Feb-17 23:07N 21°57' E 113°53'24411.6
2015-Feb-17 02:07N 23°30' E 117°57'913.1
2015-Feb-17 01:25N 23°36' E 118°05'6112.6
2015-Feb-16 20:32N 24°18' E 118°55'35812.7
2015-Feb-15 16:23N 29°19' E 122°30'1513.1
2015-Feb-15 15:13N 29°34' E 122°32'711.2
2015-Feb-15 14:33N 29°41' E 122°30'1313.1
2015-Feb-15 13:33N 29°47' E 122°16'1212.2
2015-Feb-15 12:34N 29°55' E 122°06'1212.2
2015-Feb-15 11:33N 29°58' E 121°52'2 2.0
2015-Feb-15 10:24N 29°59' E 121°50'0 0.0
2015-Feb-15 09:30N 29°59' E 121°50'0 0.0
2015-Feb-15 08:30N 29°59' E 121°50'0 0.0
2015-Feb-15 07:30N 29°59' E 121°50'0 0.0
2015-Feb-15 06:30N 29°59' E 121°50'0 0.0
2015-Feb-15 05:30N 29°59' E 121°50'0 0.0
2015-Feb-15 04:18N 29°59' E 121°50'0 0.0
2015-Feb-15 03:30N 29°59' E 121°50'0 0.0
2015-Feb-15 02:30N 29°59' E 121°50'0 0.0
2015-Feb-15 01:24N 29°59' E 121°50'0 0.0
2015-Feb-15 00:18N 29°59' E 121°50'0 0.0
2015-Feb-14 23:30N 29°59' E 121°50'0 0.0
2015-Feb-14 22:30N 29°59' E 121°50'0 0.0
2015-Feb-14 21:30N 29°59' E 121°50'2 2.1
2015-Feb-14 20:33N 29°58' E 121°51'1313.5
2015-Feb-14 19:34N 29°56' E 122°07'1312.9
2015-Feb-14 18:32N 29°46' E 122°17'6 6.6
2015-Feb-14 17:33N 29°44' E 122°24'1111.2
2015-Feb-14 16:33N 29°44' E 122°37'1212.0
2015-Feb-14 15:33N 29°53' E 122°47'1312.5
2015-Feb-14 14:32N 30°03' E 122°56'1411.5
2015-Feb-14 13:17N 30°17' E 122°59'912.3
2015-Feb-14 12:33N 30°23' E 122°51'  

Dump ship's entire track history